sensor_id;sensor_type;location;lat;lon;timestamp;temperature;humidity
5419;DHT22;2732;52.092;11.556;2024-02-21T00:03:41;7.60;99.90
5419;DHT22;2732;52.092;11.556;2024-02-21T00:08:42;7.60;99.90
5419;DHT22;2732;52.092;11.556;2024-02-21T00:13:43;7.60;99.90
5419;DHT22;2732;52.092;11.556;2024-02-21T00:18:44;7.60;99.90
5419;DHT22;2732;52.092;11.556;2024-02-21T00:23:45;7.60;99.90
5419;DHT22;2732;52.092;11.556;2024-02-21T00:28:46;7.60;99.90
5419;DHT22;2732;52.092;11.556;2024-02-21T00:33:47;7.60;99.90
5419;DHT22;2732;52.092;11.556;2024-02-21T00:38:47;7.60;99.90
5419;DHT22;2732;52.092;11.556;2024-02-21T00:43:48;7.60;99.90
5419;DHT22;2732;52.092;11.556;2024-02-21T00:48:50;7.60;99.90
5419;DHT22;2732;52.092;11.556;2024-02-21T00:53:50;7.50;99.90
5419;DHT22;2732;52.092;11.556;2024-02-21T00:58:51;7.50;99.90
5419;DHT22;2732;52.092;11.556;2024-02-21T01:03:51;7.50;99.90
5419;DHT22;2732;52.092;11.556;2024-02-21T01:08:55;7.50;99.90
5419;DHT22;2732;52.092;11.556;2024-02-21T01:13:55;7.50;99.90
5419;DHT22;2732;52.092;11.556;2024-02-21T01:18:56;7.50;99.90
5419;DHT22;2732;52.092;11.556;2024-02-21T01:23:56;7.50;99.90
5419;DHT22;2732;52.092;11.556;2024-02-21T01:28:57;7.50;99.90
5419;DHT22;2732;52.092;11.556;2024-02-21T01:33:57;7.50;99.90
5419;DHT22;2732;52.092;11.556;2024-02-21T01:38:58;7.50;99.90
5419;DHT22;2732;52.092;11.556;2024-02-21T01:43:59;7.50;99.90
5419;DHT22;2732;52.092;11.556;2024-02-21T01:48:59;7.50;99.90
5419;DHT22;2732;52.092;11.556;2024-02-21T01:54:00;7.50;99.90
5419;DHT22;2732;52.092;11.556;2024-02-21T01:59:01;7.50;99.90
5419;DHT22;2732;52.092;11.556;2024-02-21T02:04:02;7.40;99.90
5419;DHT22;2732;52.092;11.556;2024-02-21T02:09:05;7.40;99.90
5419;DHT22;2732;52.092;11.556;2024-02-21T02:14:06;7.40;99.90
5419;DHT22;2732;52.092;11.556;2024-02-21T02:19:06;7.40;99.90
5419;DHT22;2732;52.092;11.556;2024-02-21T02:24:07;7.50;99.90
5419;DHT22;2732;52.092;11.556;2024-02-21T02:29:08;7.50;99.90
5419;DHT22;2732;52.092;11.556;2024-02-21T02:34:08;7.50;99.90
5419;DHT22;2732;52.092;11.556;2024-02-21T02:39:09;7.50;99.90
5419;DHT22;2732;52.092;11.556;2024-02-21T02:44:10;7.50;99.90
5419;DHT22;2732;52.092;11.556;2024-02-21T02:49:10;7.50;99.90
5419;DHT22;2732;52.092;11.556;2024-02-21T02:54:11;7.50;99.90
5419;DHT22;2732;52.092;11.556;2024-02-21T02:59:12;7.50;99.90
5419;DHT22;2732;52.092;11.556;2024-02-21T03:04:13;7.50;99.90
5419;DHT22;2732;52.092;11.556;2024-02-21T03:09:13;7.50;99.90
5419;DHT22;2732;52.092;11.556;2024-02-21T03:14:15;7.50;99.90
5419;DHT22;2732;52.092;11.556;2024-02-21T03:19:16;7.60;99.90
5419;DHT22;2732;52.092;11.556;2024-02-21T03:24:17;7.60;99.90
5419;DHT22;2732;52.092;11.556;2024-02-21T03:29:18;7.60;99.90
5419;DHT22;2732;52.092;11.556;2024-02-21T03:34:19;7.60;99.90
5419;DHT22;2732;52.092;11.556;2024-02-21T03:39:19;7.60;99.90
5419;DHT22;2732;52.092;11.556;2024-02-21T03:44:21;7.60;99.90
5419;DHT22;2732;52.092;11.556;2024-02-21T03:49:22;7.60;99.90
5419;DHT22;2732;52.092;11.556;2024-02-21T03:54:22;7.60;99.90
5419;DHT22;2732;52.092;11.556;2024-02-21T03:59:23;7.60;99.90
5419;DHT22;2732;52.092;11.556;2024-02-21T04:04:23;7.60;99.90
5419;DHT22;2732;52.092;11.556;2024-02-21T04:09:24;7.60;99.90
5419;DHT22;2732;52.092;11.556;2024-02-21T04:14:24;7.60;99.90
5419;DHT22;2732;52.092;11.556;2024-02-21T04:19:25;7.60;99.90
5419;DHT22;2732;52.092;11.556;2024-02-21T04:24:26;7.60;99.90
5419;DHT22;2732;52.092;11.556;2024-02-21T04:29:26;7.60;99.90
5419;DHT22;2732;52.092;11.556;2024-02-21T04:34:28;7.60;99.90
5419;DHT22;2732;52.092;11.556;2024-02-21T04:39:29;7.60;99.90
5419;DHT22;2732;52.092;11.556;2024-02-21T04:44:30;7.50;99.90
5419;DHT22;2732;52.092;11.556;2024-02-21T04:49:31;7.50;99.90
5419;DHT22;2732;52.092;11.556;2024-02-21T04:54:31;7.50;99.90
5419;DHT22;2732;52.092;11.556;2024-02-21T04:59:32;7.50;99.90
5419;DHT22;2732;52.092;11.556;2024-02-21T05:04:33;7.50;99.90
5419;DHT22;2732;52.092;11.556;2024-02-21T05:09:34;7.40;99.90
5419;DHT22;2732;52.092;11.556;2024-02-21T05:14:35;7.40;99.90
5419;DHT22;2732;52.092;11.556;2024-02-21T05:19:35;7.40;99.90
5419;DHT22;2732;52.092;11.556;2024-02-21T05:24:36;7.30;99.90
5419;DHT22;2732;52.092;11.556;2024-02-21T05:29:36;7.30;99.90
5419;DHT22;2732;52.092;11.556;2024-02-21T05:34:37;7.30;99.90
5419;DHT22;2732;52.092;11.556;2024-02-21T05:39:38;7.30;99.90
5419;DHT22;2732;52.092;11.556;2024-02-21T05:44:38;7.30;99.90
5419;DHT22;2732;52.092;11.556;2024-02-21T05:49:39;7.30;99.90
5419;DHT22;2732;52.092;11.556;2024-02-21T05:54:40;7.30;99.90
5419;DHT22;2732;52.092;11.556;2024-02-21T05:59:40;7.30;99.90
5419;DHT22;2732;52.092;11.556;2024-02-21T06:04:42;7.30;99.90
5419;DHT22;2732;52.092;11.556;2024-02-21T06:09:46;7.30;99.90
5419;DHT22;2732;52.092;11.556;2024-02-21T06:14:47;7.30;99.90
5419;DHT22;2732;52.092;11.556;2024-02-21T06:19:47;7.30;99.90
5419;DHT22;2732;52.092;11.556;2024-02-21T06:24:48;7.30;99.90
5419;DHT22;2732;52.092;11.556;2024-02-21T06:29:48;7.30;99.90
5419;DHT22;2732;52.092;11.556;2024-02-21T06:34:49;7.40;99.90
5419;DHT22;2732;52.092;11.556;2024-02-21T06:39:50;7.40;99.90
5419;DHT22;2732;52.092;11.556;2024-02-21T06:44:50;7.40;99.90
5419;DHT22;2732;52.092;11.556;2024-02-21T06:49:51;7.40;99.90
5419;DHT22;2732;52.092;11.556;2024-02-21T06:54:52;7.50;99.90
5419;DHT22;2732;52.092;11.556;2024-02-21T06:59:52;7.50;99.90
5419;DHT22;2732;52.092;11.556;2024-02-21T07:04:53;7.50;99.90
5419;DHT22;2732;52.092;11.556;2024-02-21T07:09:53;7.60;99.90
5419;DHT22;2732;52.092;11.556;2024-02-21T07:14:55;7.60;99.90
5419;DHT22;2732;52.092;11.556;2024-02-21T07:19:55;7.70;99.90
5419;DHT22;2732;52.092;11.556;2024-02-21T07:24:57;7.70;99.90
5419;DHT22;2732;52.092;11.556;2024-02-21T07:29:57;7.80;99.90
5419;DHT22;2732;52.092;11.556;2024-02-21T07:34:58;7.90;99.90
5419;DHT22;2732;52.092;11.556;2024-02-21T07:39:58;8.00;99.90
5419;DHT22;2732;52.092;11.556;2024-02-21T07:44:59;8.10;99.90
5419;DHT22;2732;52.092;11.556;2024-02-21T07:50:00;8.20;99.90
5419;DHT22;2732;52.092;11.556;2024-02-21T07:55:00;8.30;99.90
5419;DHT22;2732;52.092;11.556;2024-02-21T08:00:01;8.50;99.90
5419;DHT22;2732;52.092;11.556;2024-02-21T08:05:01;8.50;99.90
5419;DHT22;2732;52.092;11.556;2024-02-21T08:10:02;8.50;99.90
5419;DHT22;2732;52.092;11.556;2024-02-21T08:15:04;8.60;99.90
5419;DHT22;2732;52.092;11.556;2024-02-21T08:20:05;8.70;99.90
5419;DHT22;2732;52.092;11.556;2024-02-21T08:25:06;8.80;99.90
5419;DHT22;2732;52.092;11.556;2024-02-21T08:30:07;8.90;99.90
5419;DHT22;2732;52.092;11.556;2024-02-21T08:35:08;9.00;99.90
5419;DHT22;2732;52.092;11.556;2024-02-21T08:40:10;9.10;99.90
5419;DHT22;2732;52.092;11.556;2024-02-21T08:45:11;9.20;99.90
5419;DHT22;2732;52.092;11.556;2024-02-21T08:50:12;9.30;99.90
5419;DHT22;2732;52.092;11.556;2024-02-21T08:55:12;9.40;99.90
5419;DHT22;2732;52.092;11.556;2024-02-21T09:00:13;9.60;99.90
5419;DHT22;2732;52.092;11.556;2024-02-21T09:05:15;9.80;99.90
5419;DHT22;2732;52.092;11.556;2024-02-21T09:10:15;10.00;99.90
5419;DHT22;2732;52.092;11.556;2024-02-21T09:15:16;10.10;99.90
5419;DHT22;2732;52.092;11.556;2024-02-21T09:20:17;10.30;99.90
5419;DHT22;2732;52.092;11.556;2024-02-21T09:25:18;10.30;99.90
5419;DHT22;2732;52.092;11.556;2024-02-21T09:30:19;10.30;99.90
5419;DHT22;2732;52.092;11.556;2024-02-21T09:35:20;10.40;99.90
5419;DHT22;2732;52.092;11.556;2024-02-21T09:40:23;10.50;99.90
5419;DHT22;2732;52.092;11.556;2024-02-21T09:45:25;10.60;99.90
5419;DHT22;2732;52.092;11.556;2024-02-21T09:50:26;10.70;99.90
5419;DHT22;2732;52.092;11.556;2024-02-21T09:55:29;10.80;99.90
5419;DHT22;2732;52.092;11.556;2024-02-21T10:00:33;11.00;99.90
5419;DHT22;2732;52.092;11.556;2024-02-21T10:05:34;11.20;99.90
5419;DHT22;2732;52.092;11.556;2024-02-21T10:10:43;11.50;99.90
5419;DHT22;2732;52.092;11.556;2024-02-21T10:15:44;11.90;99.90
5419;DHT22;2732;52.092;11.556;2024-02-21T10:21:02;12.00;99.90
5419;DHT22;2732;52.092;11.556;2024-02-21T10:26:07;12.00;99.90
5419;DHT22;2732;52.092;11.556;2024-02-21T10:31:09;11.90;99.90
5419;DHT22;2732;52.092;11.556;2024-02-21T10:36:11;12.00;99.90
5419;DHT22;2732;52.092;11.556;2024-02-21T10:41:14;12.10;99.90
5419;DHT22;2732;52.092;11.556;2024-02-21T10:46:18;12.40;99.90
5419;DHT22;2732;52.092;11.556;2024-02-21T10:51:20;12.60;99.90
5419;DHT22;2732;52.092;11.556;2024-02-21T10:56:29;12.80;99.90
5419;DHT22;2732;52.092;11.556;2024-02-21T11:01:41;12.90;99.90
5419;DHT22;2732;52.092;11.556;2024-02-21T11:06:42;13.00;99.90
5419;DHT22;2732;52.092;11.556;2024-02-21T11:11:44;13.10;99.90
5419;DHT22;2732;52.092;11.556;2024-02-21T11:16:45;13.10;99.90
5419;DHT22;2732;52.092;11.556;2024-02-21T11:21:47;13.30;99.90
5419;DHT22;2732;52.092;11.556;2024-02-21T11:26:50;13.30;99.90
5419;DHT22;2732;52.092;11.556;2024-02-21T11:31:52;13.40;99.90
5419;DHT22;2732;52.092;11.556;2024-02-21T11:36:53;13.40;99.90
5419;DHT22;2732;52.092;11.556;2024-02-21T11:42:03;13.40;99.90
5419;DHT22;2732;52.092;11.556;2024-02-21T11:47:06;13.50;99.90
5419;DHT22;2732;52.092;11.556;2024-02-21T11:52:07;13.50;99.90
5419;DHT22;2732;52.092;11.556;2024-02-21T11:57:08;13.30;99.90
5419;DHT22;2732;52.092;11.556;2024-02-21T12:02:09;13.20;99.90
5419;DHT22;2732;52.092;11.556;2024-02-21T12:07:10;13.00;99.90
5419;DHT22;2732;52.092;11.556;2024-02-21T12:12:11;13.00;99.90
5419;DHT22;2732;52.092;11.556;2024-02-21T12:17:12;13.00;99.90
5419;DHT22;2732;52.092;11.556;2024-02-21T12:22:19;13.00;99.90
5419;DHT22;2732;52.092;11.556;2024-02-21T12:27:19;13.00;99.90
5419;DHT22;2732;52.092;11.556;2024-02-21T12:32:20;13.20;99.90
5419;DHT22;2732;52.092;11.556;2024-02-21T12:37:23;13.20;99.90
5419;DHT22;2732;52.092;11.556;2024-02-21T12:42:25;13.20;99.90
5419;DHT22;2732;52.092;11.556;2024-02-21T12:47:26;13.20;99.90
5419;DHT22;2732;52.092;11.556;2024-02-21T12:52:27;13.20;99.90
5419;DHT22;2732;52.092;11.556;2024-02-21T12:57:27;13.20;99.90
5419;DHT22;2732;52.092;11.556;2024-02-21T13:02:28;13.20;99.90
5419;DHT22;2732;52.092;11.556;2024-02-21T13:07:29;13.30;99.90
5419;DHT22;2732;52.092;11.556;2024-02-21T13:12:31;13.30;99.90
5419;DHT22;2732;52.092;11.556;2024-02-21T13:17:32;13.20;99.90
5419;DHT22;2732;52.092;11.556;2024-02-21T13:22:34;13.20;99.90
5419;DHT22;2732;52.092;11.556;2024-02-21T13:27:34;13.20;99.90
5419;DHT22;2732;52.092;11.556;2024-02-21T13:32:35;13.10;99.90
5419;DHT22;2732;52.092;11.556;2024-02-21T13:37:35;13.20;99.90
5419;DHT22;2732;52.092;11.556;2024-02-21T13:42:37;13.20;99.90
5419;DHT22;2732;52.092;11.556;2024-02-21T13:47:38;13.20;99.90
5419;DHT22;2732;52.092;11.556;2024-02-21T13:52:39;13.30;99.90
5419;DHT22;2732;52.092;11.556;2024-02-21T13:57:41;13.30;99.90
5419;DHT22;2732;52.092;11.556;2024-02-21T14:02:42;13.30;99.90
5419;DHT22;2732;52.092;11.556;2024-02-21T14:07:42;13.30;99.90
5419;DHT22;2732;52.092;11.556;2024-02-21T14:12:43;13.20;99.90
5419;DHT22;2732;52.092;11.556;2024-02-21T14:17:43;13.20;99.90
5419;DHT22;2732;52.092;11.556;2024-02-21T14:22:44;13.10;99.90
5419;DHT22;2732;52.092;11.556;2024-02-21T14:27:44;13.10;99.90
5419;DHT22;2732;52.092;11.556;2024-02-21T14:32:45;13.00;99.90
5419;DHT22;2732;52.092;11.556;2024-02-21T14:37:46;12.90;99.90
5419;DHT22;2732;52.092;11.556;2024-02-21T14:42:49;12.90;99.90
5419;DHT22;2732;52.092;11.556;2024-02-21T14:47:49;12.80;99.90
5419;DHT22;2732;52.092;11.556;2024-02-21T14:52:50;12.70;99.90
5419;DHT22;2732;52.092;11.556;2024-02-21T14:57:51;12.60;99.90
5419;DHT22;2732;52.092;11.556;2024-02-21T15:02:51;12.60;99.90
5419;DHT22;2732;52.092;11.556;2024-02-21T15:07:52;12.50;99.90
5419;DHT22;2732;52.092;11.556;2024-02-21T15:12:52;12.40;99.90
5419;DHT22;2732;52.092;11.556;2024-02-21T15:17:53;12.30;99.90
5419;DHT22;2732;52.092;11.556;2024-02-21T15:22:54;12.30;99.90
5419;DHT22;2732;52.092;11.556;2024-02-21T15:27:54;12.20;99.90
5419;DHT22;2732;52.092;11.556;2024-02-21T15:32:55;12.10;99.90
5419;DHT22;2732;52.092;11.556;2024-02-21T15:37:58;12.00;99.90
5419;DHT22;2732;52.092;11.556;2024-02-21T15:42:59;11.90;99.90
5419;DHT22;2732;52.092;11.556;2024-02-21T15:47:59;11.80;99.90
5419;DHT22;2732;52.092;11.556;2024-02-21T15:53:00;11.70;99.90
5419;DHT22;2732;52.092;11.556;2024-02-21T15:58:01;11.50;99.90
5419;DHT22;2732;52.092;11.556;2024-02-21T16:03:04;11.40;99.90
5419;DHT22;2732;52.092;11.556;2024-02-21T16:08:05;11.30;99.90
5419;DHT22;2732;52.092;11.556;2024-02-21T16:13:06;11.10;99.90
5419;DHT22;2732;52.092;11.556;2024-02-21T16:18:06;11.00;99.90
5419;DHT22;2732;52.092;11.556;2024-02-21T16:23:07;10.90;99.90
5419;DHT22;2732;52.092;11.556;2024-02-21T16:28:08;10.80;99.90
5419;DHT22;2732;52.092;11.556;2024-02-21T16:33:09;10.70;99.90
5419;DHT22;2732;52.092;11.556;2024-02-21T16:38:09;10.60;99.90
5419;DHT22;2732;52.092;11.556;2024-02-21T16:43:11;10.50;99.90
5419;DHT22;2732;52.092;11.556;2024-02-21T16:48:11;10.40;99.90
5419;DHT22;2732;52.092;11.556;2024-02-21T16:53:12;10.20;99.90
5419;DHT22;2732;52.092;11.556;2024-02-21T16:58:13;10.10;99.90
5419;DHT22;2732;52.092;11.556;2024-02-21T17:03:16;10.00;99.90
5419;DHT22;2732;52.092;11.556;2024-02-21T17:08:19;10.00;99.90
5419;DHT22;2732;52.092;11.556;2024-02-21T17:13:20;9.80;99.90
5419;DHT22;2732;52.092;11.556;2024-02-21T17:18:21;9.80;99.90
5419;DHT22;2732;52.092;11.556;2024-02-21T17:23:23;9.70;99.90
5419;DHT22;2732;52.092;11.556;2024-02-21T17:28:24;9.70;99.90
5419;DHT22;2732;52.092;11.556;2024-02-21T17:33:25;9.60;99.90
5419;DHT22;2732;52.092;11.556;2024-02-21T17:38:25;9.50;99.90
5419;DHT22;2732;52.092;11.556;2024-02-21T17:43:27;9.50;99.90
5419;DHT22;2732;52.092;11.556;2024-02-21T17:48:29;9.50;99.90
5419;DHT22;2732;52.092;11.556;2024-02-21T17:53:30;9.40;99.90
5419;DHT22;2732;52.092;11.556;2024-02-21T17:58:31;9.40;99.90
5419;DHT22;2732;52.092;11.556;2024-02-21T18:03:31;9.30;99.90
5419;DHT22;2732;52.092;11.556;2024-02-21T18:08:32;9.20;99.90
5419;DHT22;2732;52.092;11.556;2024-02-21T18:13:32;9.20;99.90
5419;DHT22;2732;52.092;11.556;2024-02-21T18:18:33;9.10;99.90
5419;DHT22;2732;52.092;11.556;2024-02-21T18:23:34;9.10;99.90
5419;DHT22;2732;52.092;11.556;2024-02-21T18:28:37;9.00;99.90
5419;DHT22;2732;52.092;11.556;2024-02-21T18:33:37;9.00;99.90
5419;DHT22;2732;52.092;11.556;2024-02-21T18:38:44;8.90;99.90
5419;DHT22;2732;52.092;11.556;2024-02-21T18:43:45;8.90;99.90
5419;DHT22;2732;52.092;11.556;2024-02-21T18:48:46;8.90;99.90
5419;DHT22;2732;52.092;11.556;2024-02-21T18:53:47;8.80;99.90
5419;DHT22;2732;52.092;11.556;2024-02-21T18:58:47;8.80;99.90
5419;DHT22;2732;52.092;11.556;2024-02-21T19:03:48;8.80;99.90
5419;DHT22;2732;52.092;11.556;2024-02-21T19:08:48;8.80;99.90
5419;DHT22;2732;52.092;11.556;2024-02-21T19:13:51;8.70;99.90
5419;DHT22;2732;52.092;11.556;2024-02-21T19:18:51;8.70;99.90
5419;DHT22;2732;52.092;11.556;2024-02-21T19:23:53;8.70;99.90
5419;DHT22;2732;52.092;11.556;2024-02-21T19:28:54;8.70;99.90
5419;DHT22;2732;52.092;11.556;2024-02-21T19:33:54;8.70;99.90
5419;DHT22;2732;52.092;11.556;2024-02-21T19:38:55;8.70;99.90
5419;DHT22;2732;52.092;11.556;2024-02-21T19:43:56;8.70;99.90
5419;DHT22;2732;52.092;11.556;2024-02-21T19:48:57;8.70;99.90
5419;DHT22;2732;52.092;11.556;2024-02-21T19:53:58;8.70;99.90
5419;DHT22;2732;52.092;11.556;2024-02-21T19:58:59;8.70;99.90
5419;DHT22;2732;52.092;11.556;2024-02-21T20:04:01;8.60;99.90
5419;DHT22;2732;52.092;11.556;2024-02-21T20:09:04;8.60;99.90
5419;DHT22;2732;52.092;11.556;2024-02-21T20:14:06;8.60;99.90
5419;DHT22;2732;52.092;11.556;2024-02-21T20:19:08;8.60;99.90
5419;DHT22;2732;52.092;11.556;2024-02-21T20:24:13;8.60;99.90
5419;DHT22;2732;52.092;11.556;2024-02-21T20:29:13;8.60;99.90
5419;DHT22;2732;52.092;11.556;2024-02-21T20:34:16;8.60;99.90
5419;DHT22;2732;52.092;11.556;2024-02-21T20:39:17;8.60;99.90
5419;DHT22;2732;52.092;11.556;2024-02-21T20:44:19;8.60;99.90
5419;DHT22;2732;52.092;11.556;2024-02-21T20:49:19;8.60;99.90
5419;DHT22;2732;52.092;11.556;2024-02-21T20:54:20;8.60;99.90
5419;DHT22;2732;52.092;11.556;2024-02-21T20:59:20;8.60;99.90
5419;DHT22;2732;52.092;11.556;2024-02-21T21:04:23;8.60;99.90
5419;DHT22;2732;52.092;11.556;2024-02-21T21:09:24;8.50;99.90
5419;DHT22;2732;52.092;11.556;2024-02-21T21:14:26;8.60;99.90
5419;DHT22;2732;52.092;11.556;2024-02-21T21:19:28;8.60;99.90
5419;DHT22;2732;52.092;11.556;2024-02-21T21:24:29;8.60;99.90
5419;DHT22;2732;52.092;11.556;2024-02-21T21:29:31;8.60;99.90
5419;DHT22;2732;52.092;11.556;2024-02-21T21:34:34;8.60;99.90
5419;DHT22;2732;52.092;11.556;2024-02-21T21:39:35;8.50;99.90
5419;DHT22;2732;52.092;11.556;2024-02-21T21:44:36;8.50;99.90
5419;DHT22;2732;52.092;11.556;2024-02-21T21:49:36;8.50;99.90
5419;DHT22;2732;52.092;11.556;2024-02-21T21:54:37;8.50;99.90
5419;DHT22;2732;52.092;11.556;2024-02-21T21:59:38;8.50;99.90
5419;DHT22;2732;52.092;11.556;2024-02-21T22:04:38;8.50;99.90
5419;DHT22;2732;52.092;11.556;2024-02-21T22:09:39;8.50;99.90
5419;DHT22;2732;52.092;11.556;2024-02-21T22:14:40;8.50;99.90
5419;DHT22;2732;52.092;11.556;2024-02-21T22:19:40;8.50;99.90
5419;DHT22;2732;52.092;11.556;2024-02-21T22:24:42;8.50;99.90
5419;DHT22;2732;52.092;11.556;2024-02-21T22:29:44;8.50;99.90
5419;DHT22;2732;52.092;11.556;2024-02-21T22:34:45;8.50;99.90
5419;DHT22;2732;52.092;11.556;2024-02-21T22:39:45;8.50;99.90
5419;DHT22;2732;52.092;11.556;2024-02-21T22:44:46;8.50;99.90
5419;DHT22;2732;52.092;11.556;2024-02-21T22:49:47;8.50;99.90
5419;DHT22;2732;52.092;11.556;2024-02-21T22:54:47;8.50;99.90
5419;DHT22;2732;52.092;11.556;2024-02-21T22:59:48;8.50;99.90
5419;DHT22;2732;52.092;11.556;2024-02-21T23:04:49;8.50;99.90
5419;DHT22;2732;52.092;11.556;2024-02-21T23:09:50;8.40;99.90
5419;DHT22;2732;52.092;11.556;2024-02-21T23:14:50;8.50;99.90
5419;DHT22;2732;52.092;11.556;2024-02-21T23:19:51;8.40;99.90
5419;DHT22;2732;52.092;11.556;2024-02-21T23:24:51;8.40;99.90
5419;DHT22;2732;52.092;11.556;2024-02-21T23:29:52;8.40;99.90
5419;DHT22;2732;52.092;11.556;2024-02-21T23:34:53;8.40;99.90
5419;DHT22;2732;52.092;11.556;2024-02-21T23:39:53;8.40;99.90
5419;DHT22;2732;52.092;11.556;2024-02-21T23:44:54;8.40;99.90
5419;DHT22;2732;52.092;11.556;2024-02-21T23:49:55;8.30;99.90
5419;DHT22;2732;52.092;11.556;2024-02-21T23:54:56;8.30;99.90
5419;DHT22;2732;52.092;11.556;2024-02-21T23:59:58;8.30;99.90
